Aérodrome :
LOGIN :

S'inscrire | Disclaimer

   EN    FR    IT 

 










Légende :    VFR   VFR Marginal   IFR   IFR Intensif   IFR Très Intensif
Visi : 
Plafond : 
>= 8 km
>= 3000ft
5 à 8 km
1000 à 3000 ft
1500m à 5 km
500 à 1000 ft
800 à 1500m
200 à 500 ft
< 800m
< 200 ft
Symboles :   Orages  Brouillard  Fortes neiges  Fortes précipitations  Vent > 20 kt
SIGMETs :   Divers  Orages  Givrage  Turbulence  Onde Orograph.  Cendres Volcan.







- Altitude de l'aérodrome : 218 ft
- Code IATA : LBG
- Voir les cartes d'approche


LFPB - Paris / Le Bourget

DERNIER METAR :
  • 210900Z AUTO 27015KT 9999 BKN025 BKN220 15/10 Q1012 BECMG 27015G25KT

METARs EXPIRÉS :
  • 210830Z AUTO 26010KT 230V290 9999 FEW021 SCT026 BKN250 15/11 Q1012 BECMG 27015G25KT
  • 210800Z AUTO 26010KT 9999 FEW023 SCT060 BKN084 15/12 Q1011 BECMG 27015G25KT
  • 210730Z AUTO 25010KT 9999 -DZ FEW018 BKN046 OVC052 14/12 Q1011 BECMG 27015G25KT
  • 210700Z AUTO 25010KT 220V280 9999 FEW010 OVC045 14/12 Q1010 TEMPO 4500 RA BKN014 BKN020 BECMG 23015G25KT
  • 210630Z AUTO 28013G23KT 240V320 2600 -RA BR BKN010/// BKN015/// OVC031/// ///TCU 14/12 Q1010 BECMG 9999 RA SCT030

TAF AMD TAF LFPB
Valide du 21 à 06h jusqu'au 22 à 06h UTC


210645Z 2106/2206 27015G25KT 8000 BKN015
BECMG 2115/2117 27010KT
ATIS : +33 1 48 62 43 92
Pas de NOTAMs connus pour ce terrain.



MET'MAP, la Météo Aéronautique d'un coup d'oeil ! - Copyright ORBIFLY Décembre 2007 - Disclaimer

ORBIFLY MET'MAP TEAM :

Programmation & Développement : Alexandra Zaïnal
Conception & Développement : Baudouin d'Aumeries
Co-Programmation & Développement : Marc-Olivier Méhu
Soutien technique & logistique : Manuel Goepfert

Contact : metmap@orbifly.com




SOURCES & CREDITS :

   NOAA